This is the latest recevied weather packets stored in our database for station/object GW1476. If no packets are shown the sender has not sent any weather packets the latest 10 day(s).
| Time | Temp. | Humidity | Pressure | Rain* | Wind** | Luminosity | Snow |
|---|---|---|---|---|---|---|---|
| 1777445669 | 14.44° C | 99% | 1014.5 hPa | 0 mm | - | - | - |
| 1777445331 | 14.44° C | 99% | 1014.5 hPa | 0 mm | - | - | - |
| 1777443879 | 14.44° C | 99% | 1015.2 hPa | 0 mm | - | - | - |
| 1777442072 | 14.44° C | 99% | 1015.2 hPa | 0 mm | - | - | - |
| 1777441332 | 14.44° C | 99% | 1015.5 hPa | 0 mm | - | - | - |
| 1777438126 | 15° C | 99% | 1015.9 hPa | 0 mm | - | - | - |
| 1777436667 | 15° C | 99% | 1015.9 hPa | 0 mm | - | - | - |
| 1777433447 | 15.56° C | 99% | 1016.5 hPa | 8.64 mm | - | - | - |
| 1777431256 | 16.11° C | 99% | 1017.2 hPa | 8.64 mm | - | - | - |
| 1777430213 | 16.11° C | 99% | 1017.6 hPa | 8.64 mm | - | - | - |
| 1777428393 | 16.67° C | 99% | 1017.2 hPa | 8.64 mm | - | - | - |
| 1777421909 | 20° C | 89% | 1016.2 hPa | 8.64 mm | - | - | - |
| 1777420098 | 23.33° C | 76% | 1016.2 hPa | 8.64 mm | - | - | - |
| 1777418667 | 26.67° C | 66% | 1015.5 hPa | 8.64 mm | - | - | - |
| 1777417608 | 26.11° C | 65% | 1014.9 hPa | 8.64 mm | - | - | - |
| 1777417237 | 27.22° C | 62% | 1014.9 hPa | 8.64 mm | - | - | - |
| 1777406074 | 24.44° C | 75% | 1017.6 hPa | 8.64 mm | - | - | - |
| 1777400331 | 22.22° C | 80% | 1018.2 hPa | 8.64 mm | - | - | - |
| 1777399601 | 22.78° C | 79% | 1018.6 hPa | 8.64 mm | - | - | - |
| 1777398136 | 22.78° C | 78% | 1018.2 hPa | 8.64 mm | - | - | - |
| 1777395648 | 22.22° C | 77% | 1018.6 hPa | 8.64 mm | - | - | - |
| 1777394924 | 22.78° C | 76% | 1018.6 hPa | 8.64 mm | - | - | - |
| 1777394204 | 22.78° C | 76% | 1018.6 hPa | 8.64 mm | - | - | - |
| 1777392754 | 23.33° C | 73% | 1018.6 hPa | 8.64 mm | - | - | - |
| 1777388785 | 22.22° C | 76% | 1017.6 hPa | 8.64 mm | - | - | - |
* Rain since midnight (hover to see other rain measurements)
** Current wind speed in m/s (hover to see current wind gust speed)